アリススプリングス の空港の天気 - METARとTAF

アリス・スプリングス空港 ( YBAS / ASP ) - オーストラリア ノーザンテリトリーアリススプリングス
飛行場実況気象(Metar)
観測時間04/30 23:30 ACST (04/30 14:00 UTC)
風向・風速南東 3m/s
視程10km以上
天気現象
なし
気温15℃
湿度48%
気圧1020hPa
METARYBAS 301400Z AUTO 13005KT 9999 // NCD 15/04 Q1020
過去の天気等 Google飛行場航空写真 Wunderground天気予報

過去48時間のMETAR

飛行場予報(TAF)
発表時間: 4/30 20:37 ACST (4/30 11:07 UTC)
予報対象時間: 30日21時 ACST ~ 1日21時 ACST
風向・風速東南東 3m/s
視程10km以上
なし
1日0時 ACST から
風向・風速西北西 3m/s
視程10km以上
なし
1日8時 ACST から
風向・風速南東 4m/s
視程10km以上
なし
TAF YBAS 301107Z 3012/0112 12006KT CAVOK
FM301500 30005KT CAVOK
FM302300 14008KT CAVOK